sensor_id;sensor_type;location;lat;lon;timestamp;pressure;altitude;pressure_sealevel;temperature;humidity
51249;BME280;39642;47.556;18.728;2023-09-19T00:01:33;99092.19;;;24.44;52.13
51249;BME280;39642;47.556;18.728;2023-09-19T00:04:00;99094.84;;;24.44;52.15
51249;BME280;39642;47.556;18.728;2023-09-19T00:06:30;99098.47;;;24.43;52.17
51249;BME280;39642;47.556;18.728;2023-09-19T00:08:57;99101.13;;;24.43;52.19
51249;BME280;39642;47.556;18.728;2023-09-19T00:11:26;99100.28;;;24.42;52.21
51249;BME280;39642;47.556;18.728;2023-09-19T00:13:53;99094.97;;;24.42;52.24
51249;BME280;39642;47.556;18.728;2023-09-19T00:16:19;99093.28;;;24.41;52.25
51249;BME280;39642;47.556;18.728;2023-09-19T00:18:45;99095.09;;;24.41;52.31
51249;BME280;39642;47.556;18.728;2023-09-19T00:21:11;99097.75;;;24.41;52.32
51249;BME280;39642;47.556;18.728;2023-09-19T00:23:38;99101.41;;;24.40;52.36
51249;BME280;39642;47.556;18.728;2023-09-19T00:26:03;99101.41;;;24.40;52.40
51249;BME280;39642;47.556;18.728;2023-09-19T00:28:30;99105.72;;;24.41;52.42
51249;BME280;39642;47.556;18.728;2023-09-19T00:30:57;99100.56;;;24.39;52.45
51249;BME280;39642;47.556;18.728;2023-09-19T00:33:27;99103.22;;;24.39;52.45
51249;BME280;39642;47.556;18.728;2023-09-19T00:35:56;99094.41;;;24.39;52.44
51249;BME280;39642;47.556;18.728;2023-09-19T00:38:23;99093.53;;;24.38;52.46
51249;BME280;39642;47.556;18.728;2023-09-19T00:40:53;99096.19;;;24.38;52.50
51249;BME280;39642;47.556;18.728;2023-09-19T00:43:20;99095.34;;;24.38;52.52
51249;BME280;39642;47.556;18.728;2023-09-19T00:45:48;99103.34;;;24.38;52.54
51249;BME280;39642;47.556;18.728;2023-09-19T00:48:19;99098.84;;;24.38;52.56
51249;BME280;39642;47.556;18.728;2023-09-19T00:50:46;99109.50;;;24.38;52.55
51249;BME280;39642;47.556;18.728;2023-09-19T00:53:15;99103.34;;;24.38;52.59
51249;BME280;39642;47.556;18.728;2023-09-19T00:55:45;99103.34;;;24.38;52.61
51249;BME280;39642;47.556;18.728;2023-09-19T00:58:11;99106.84;;;24.38;52.61
51249;BME280;39642;47.556;18.728;2023-09-19T01:00:37;99099.00;;;24.37;52.63
51249;BME280;39642;47.556;18.728;2023-09-19T01:03:04;99104.34;;;24.37;52.63
51249;BME280;39642;47.556;18.728;2023-09-19T01:05:33;99104.34;;;24.37;52.68
51249;BME280;39642;47.556;18.728;2023-09-19T01:07:59;99107.00;;;24.37;52.69
51249;BME280;39642;47.556;18.728;2023-09-19T01:10:25;99107.00;;;24.37;52.71
51249;BME280;39642;47.556;18.728;2023-09-19T01:18:43;99095.47;;;24.36;52.75
51249;BME280;39642;47.556;18.728;2023-09-19T01:21:20;99091.97;;;24.36;52.83
51249;BME280;39642;47.556;18.728;2023-09-19T01:24:01;99089.31;;;24.36;52.82
51249;BME280;39642;47.556;18.728;2023-09-19T01:31:58;99080.50;;;24.35;52.91
51249;BME280;39642;47.556;18.728;2023-09-19T01:34:27;99083.16;;;24.35;52.94
51249;BME280;39642;47.556;18.728;2023-09-19T01:36:52;99079.66;;;24.35;52.88
51249;BME280;39642;47.556;18.728;2023-09-19T01:39:19;99081.50;;;24.34;52.91
51249;BME280;39642;47.556;18.728;2023-09-19T01:47:23;99091.16;;;24.35;52.97
51249;BME280;39642;47.556;18.728;2023-09-19T01:53:15;99090.31;;;24.35;53.10
51249;BME280;39642;47.556;18.728;2023-09-19T01:55:48;99091.16;;;24.35;53.13
51249;BME280;39642;47.556;18.728;2023-09-19T01:58:37;99086.81;;;24.34;53.20
51249;BME280;39642;47.556;18.728;2023-09-19T02:01:05;99092.13;;;24.34;53.20
51249;BME280;39642;47.556;18.728;2023-09-19T02:03:33;99092.13;;;24.34;53.24
51249;BME280;39642;47.556;18.728;2023-09-19T02:06:00;99090.44;;;24.33;53.25
51249;BME280;39642;47.556;18.728;2023-09-19T02:08:26;99085.94;;;24.34;53.22
51249;BME280;39642;47.556;18.728;2023-09-19T02:10:52;99081.50;;;24.34;53.23
51249;BME280;39642;47.556;18.728;2023-09-19T02:13:19;99083.28;;;24.34;53.21
51249;BME280;39642;47.556;18.728;2023-09-19T02:15:46;99078.84;;;24.34;53.24
51249;BME280;39642;47.556;18.728;2023-09-19T02:18:13;99091.28;;;24.34;53.21
51249;BME280;39642;47.556;18.728;2023-09-19T02:20:40;99092.13;;;24.34;53.24
51249;BME280;39642;47.556;18.728;2023-09-19T02:23:06;99095.63;;;24.35;53.49
51249;BME280;39642;47.556;18.728;2023-09-19T02:25:34;99096.47;;;24.35;53.21
51249;BME280;39642;47.556;18.728;2023-09-19T02:28:01;99096.34;;;24.37;53.30
51249;BME280;39642;47.556;18.728;2023-09-19T02:30:29;99100.81;;;24.36;53.32
51249;BME280;39642;47.556;18.728;2023-09-19T02:32:56;99093.69;;;24.37;53.36
51249;BME280;39642;47.556;18.728;2023-09-19T02:35:22;99090.16;;;24.36;53.43
51249;BME280;39642;47.556;18.728;2023-09-19T02:37:48;99086.66;;;24.36;53.62
51249;BME280;39642;47.556;18.728;2023-09-19T02:40:15;99080.50;;;24.35;53.63
51249;BME280;39642;47.556;18.728;2023-09-19T02:42:55;99072.53;;;24.35;53.66
51249;BME280;39642;47.556;18.728;2023-09-19T02:45:21;99068.19;;;24.34;53.70
51249;BME280;39642;47.556;18.728;2023-09-19T02:47:48;99068.19;;;24.34;53.78
51249;BME280;39642;47.556;18.728;2023-09-19T02:50:15;99075.31;;;24.34;53.91
51249;BME280;39642;47.556;18.728;2023-09-19T02:52:42;99072.81;;;24.32;53.90
51249;BME280;39642;47.556;18.728;2023-09-19T02:55:10;99070.97;;;24.33;53.88
51249;BME280;39642;47.556;18.728;2023-09-19T02:57:36;99078.13;;;24.32;53.91
51249;BME280;39642;47.556;18.728;2023-09-19T03:00:09;99077.25;;;24.31;53.87
51249;BME280;39642;47.556;18.728;2023-09-19T03:02:38;99081.75;;;24.31;53.84
51249;BME280;39642;47.556;18.728;2023-09-19T03:05:07;99078.13;;;24.32;53.87
51249;BME280;39642;47.556;18.728;2023-09-19T03:07:33;99067.47;;;24.32;53.94
51249;BME280;39642;47.556;18.728;2023-09-19T03:10:00;99076.41;;;24.31;54.02
51249;BME280;39642;47.556;18.728;2023-09-19T03:12:26;99080.78;;;24.32;54.03
51249;BME280;39642;47.556;18.728;2023-09-19T03:14:52;99091.44;;;24.32;54.11
51249;BME280;39642;47.556;18.728;2023-09-19T03:17:18;99094.22;;;24.30;54.14
51249;BME280;39642;47.556;18.728;2023-09-19T03:19:45;99089.84;;;24.29;54.22
51249;BME280;39642;47.556;18.728;2023-09-19T03:39:27;99099.81;;;24.27;54.14
51249;BME280;39642;47.556;18.728;2023-09-19T03:41:52;99099.81;;;24.27;54.11
51249;BME280;39642;47.556;18.728;2023-09-19T03:44:18;99101.59;;;24.27;54.07
51249;BME280;39642;47.556;18.728;2023-09-19T03:46:44;99104.25;;;24.27;54.15
51249;BME280;39642;47.556;18.728;2023-09-19T03:49:10;99107.91;;;24.26;54.17
51249;BME280;39642;47.556;18.728;2023-09-19T03:51:36;99114.19;;;24.25;54.10
51249;BME280;39642;47.556;18.728;2023-09-19T03:54:03;99113.34;;;24.24;54.09
51249;BME280;39642;47.556;18.728;2023-09-19T03:56:29;99108.03;;;24.24;54.02
51249;BME280;39642;47.556;18.728;2023-09-19T03:58:56;99115.88;;;24.26;54.01
51249;BME280;39642;47.556;18.728;2023-09-19T04:01:22;99120.38;;;24.25;53.98
51249;BME280;39642;47.556;18.728;2023-09-19T04:03:48;99118.53;;;24.26;53.95
51249;BME280;39642;47.556;18.728;2023-09-19T04:06:16;99129.31;;;24.24;53.97
51249;BME280;39642;47.556;18.728;2023-09-19T04:08:43;99126.66;;;24.24;53.95
51249;BME280;39642;47.556;18.728;2023-09-19T04:14:07;99130.13;;;24.25;53.92
51249;BME280;39642;47.556;18.728;2023-09-19T04:16:33;99150.59;;;24.24;53.89
51249;BME280;39642;47.556;18.728;2023-09-19T04:18:59;99134.63;;;24.24;53.85
51249;BME280;39642;47.556;18.728;2023-09-19T04:21:25;99146.09;;;24.25;53.89
51249;BME280;39642;47.556;18.728;2023-09-19T04:23:52;99156.91;;;24.23;53.89
51249;BME280;39642;47.556;18.728;2023-09-19T04:26:18;99150.59;;;24.24;53.89
51249;BME280;39642;47.556;18.728;2023-09-19T04:28:43;99143.59;;;24.23;53.87
51249;BME280;39642;47.556;18.728;2023-09-19T04:31:09;99154.09;;;24.25;53.91
51249;BME280;39642;47.556;18.728;2023-09-19T04:33:37;99151.41;;;24.25;54.00
51249;BME280;39642;47.556;18.728;2023-09-19T04:36:03;99149.75;;;24.24;54.08
51249;BME280;39642;47.556;18.728;2023-09-19T04:38:33;99157.00;;;24.22;54.21
51249;BME280;39642;47.556;18.728;2023-09-19T04:40:59;99156.06;;;24.23;54.23
51249;BME280;39642;47.556;18.728;2023-09-19T04:43:26;99159.69;;;24.22;54.30
51249;BME280;39642;47.556;18.728;2023-09-19T04:45:52;99160.66;;;24.21;54.43
51249;BME280;39642;47.556;18.728;2023-09-19T04:48:22;99180.13;;;24.21;54.90
51249;BME280;39642;47.556;18.728;2023-09-19T04:50:51;99165.13;;;24.20;54.98
51249;BME280;39642;47.556;18.728;2023-09-19T04:53:18;99162.44;;;24.20;54.86
51249;BME280;39642;47.556;18.728;2023-09-19T04:55:52;99162.44;;;24.20;55.29
51249;BME280;39642;47.556;18.728;2023-09-19T04:58:18;99162.59;;;24.19;55.32
51249;BME280;39642;47.556;18.728;2023-09-19T05:00:46;99162.59;;;24.19;55.14
51249;BME280;39642;47.556;18.728;2023-09-19T05:03:12;99173.38;;;24.17;55.22
51249;BME280;39642;47.556;18.728;2023-09-19T05:05:38;99170.69;;;24.17;55.10
51249;BME280;39642;47.556;18.728;2023-09-19T05:08:06;99165.25;;;24.19;55.09
51249;BME280;39642;47.556;18.728;2023-09-19T05:10:35;99161.72;;;24.18;55.03
51249;BME280;39642;47.556;18.728;2023-09-19T05:13:05;99167.94;;;24.19;54.94
51249;BME280;39642;47.556;18.728;2023-09-19T05:15:33;99174.91;;;24.20;54.56
51249;BME280;39642;47.556;18.728;2023-09-19T05:18:01;99174.91;;;24.20;55.14
51249;BME280;39642;47.556;18.728;2023-09-19T05:20:27;99175.41;;;24.14;54.91
51249;BME280;39642;47.556;18.728;2023-09-19T05:23:02;99185.50;;;24.10;54.84
51249;BME280;39642;47.556;18.728;2023-09-19T05:25:32;99189.25;;;24.07;54.80
51249;BME280;39642;47.556;18.728;2023-09-19T05:27:58;99180.41;;;24.07;55.18
51249;BME280;39642;47.556;18.728;2023-09-19T05:30:26;99185.72;;;24.07;54.94
51249;BME280;39642;47.556;18.728;2023-09-19T05:32:55;99195.41;;;24.08;55.11
51249;BME280;39642;47.556;18.728;2023-09-19T05:35:23;99188.53;;;24.05;54.89
51249;BME280;39642;47.556;18.728;2023-09-19T05:37:53;99189.62;;;24.03;54.89
51249;BME280;39642;47.556;18.728;2023-09-19T05:40:21;99206.47;;;23.92;55.14
51249;BME280;39642;47.556;18.728;2023-09-19T05:42:47;99211.34;;;23.87;55.08
51249;BME280;39642;47.556;18.728;2023-09-19T05:45:14;99204.56;;;23.83;55.08
51249;BME280;39642;47.556;18.728;2023-09-19T05:47:44;99206.78;;;23.78;55.19
51249;BME280;39642;47.556;18.728;2023-09-19T05:50:12;99213.16;;;23.75;55.10
51249;BME280;39642;47.556;18.728;2023-09-19T05:52:38;99213.50;;;23.70;55.16
51249;BME280;39642;47.556;18.728;2023-09-19T05:55:05;99213.03;;;23.65;54.91
51249;BME280;39642;47.556;18.728;2023-09-19T05:57:36;99210.47;;;23.64;55.07
51249;BME280;39642;47.556;18.728;2023-09-19T06:00:06;99215.22;;;23.60;55.21
51249;BME280;39642;47.556;18.728;2023-09-19T06:02:37;99224.16;;;23.59;54.92
51249;BME280;39642;47.556;18.728;2023-09-19T06:05:05;99228.63;;;23.59;55.09
51249;BME280;39642;47.556;18.728;2023-09-19T06:07:34;99224.41;;;23.56;55.26
51249;BME280;39642;47.556;18.728;2023-09-19T06:10:06;99223.69;;;23.54;55.48
51249;BME280;39642;47.556;18.728;2023-09-19T06:12:33;99231.91;;;23.51;55.71
51249;BME280;39642;47.556;18.728;2023-09-19T06:15:04;99243.50;;;23.50;55.95
51249;BME280;39642;47.556;18.728;2023-09-19T06:17:35;99239.75;;;23.53;55.71
51249;BME280;39642;47.556;18.728;2023-09-19T06:20:06;99243.97;;;23.55;55.70
51249;BME280;39642;47.556;18.728;2023-09-19T06:22:39;99249.28;;;23.55;55.79
51249;BME280;39642;47.556;18.728;2023-09-19T06:25:11;99255.31;;;23.57;55.73
51249;BME280;39642;47.556;18.728;2023-09-19T06:27:41;99257.59;;;23.62;55.64
51249;BME280;39642;47.556;18.728;2023-09-19T06:30:09;99270.88;;;23.62;55.77
51249;BME280;39642;47.556;18.728;2023-09-19T06:32:35;99259.31;;;23.63;55.83
51249;BME280;39642;47.556;18.728;2023-09-19T06:35:01;99266.91;;;23.67;55.69
51249;BME280;39642;47.556;18.728;2023-09-19T06:37:29;99275.63;;;23.69;55.76
51249;BME280;39642;47.556;18.728;2023-09-19T06:39:56;99275.00;;;23.66;55.85
51249;BME280;39642;47.556;18.728;2023-09-19T06:42:23;99276.81;;;23.65;56.00
51249;BME280;39642;47.556;18.728;2023-09-19T06:44:50;99271.25;;;23.68;56.05
51249;BME280;39642;47.556;18.728;2023-09-19T06:47:17;99277.06;;;23.74;55.94
51249;BME280;39642;47.556;18.728;2023-09-19T06:49:43;99287.59;;;23.75;55.81
51249;BME280;39642;47.556;18.728;2023-09-19T06:52:10;99281.19;;;23.78;56.84
51249;BME280;39642;47.556;18.728;2023-09-19T06:54:37;99280.47;;;23.87;58.04
51249;BME280;39642;47.556;18.728;2023-09-19T06:57:04;99287.81;;;23.95;57.59
51249;BME280;39642;47.556;18.728;2023-09-19T06:59:31;99297.59;;;23.94;57.61
51249;BME280;39642;47.556;18.728;2023-09-19T07:01:58;99300.25;;;23.94;57.44
51249;BME280;39642;47.556;18.728;2023-09-19T07:04:25;99304.84;;;23.92;56.68
51249;BME280;39642;47.556;18.728;2023-09-19T07:06:51;99308.25;;;23.94;56.43
51249;BME280;39642;47.556;18.728;2023-09-19T07:09:17;99317.78;;;23.85;56.67
51249;BME280;39642;47.556;18.728;2023-09-19T07:11:48;99319.72;;;23.83;56.75
51249;BME280;39642;47.556;18.728;2023-09-19T07:14:16;99318.16;;;23.81;56.64
51249;BME280;39642;47.556;18.728;2023-09-19T07:16:43;99325.53;;;23.77;56.81
51249;BME280;39642;47.556;18.728;2023-09-19T07:19:10;99331.00;;;23.76;56.78
51249;BME280;39642;47.556;18.728;2023-09-19T07:21:37;99323.34;;;23.71;56.83
51249;BME280;39642;47.556;18.728;2023-09-19T07:24:04;99329.28;;;23.75;56.79
51249;BME280;39642;47.556;18.728;2023-09-19T07:26:31;99321.09;;;23.78;56.67
51249;BME280;39642;47.556;18.728;2023-09-19T07:28:57;99319.81;;;23.70;56.77
51249;BME280;39642;47.556;18.728;2023-09-19T07:31:24;99325.66;;;23.64;56.92
51249;BME280;39642;47.556;18.728;2023-09-19T07:33:51;99329.25;;;23.63;57.13
51249;BME280;39642;47.556;18.728;2023-09-19T07:36:17;99326.00;;;23.60;57.20
51249;BME280;39642;47.556;18.728;2023-09-19T07:38:43;99332.28;;;23.59;57.19
51249;BME280;39642;47.556;18.728;2023-09-19T07:41:10;99338.56;;;23.58;57.33
51249;BME280;39642;47.556;18.728;2023-09-19T07:43:40;99347.38;;;23.58;57.59
51249;BME280;39642;47.556;18.728;2023-09-19T07:46:10;99343.00;;;23.57;57.56
51249;BME280;39642;47.556;18.728;2023-09-19T07:48:37;99340.25;;;23.59;57.45
51249;BME280;39642;47.556;18.728;2023-09-19T07:51:08;99352.09;;;23.66;57.67
51249;BME280;39642;47.556;18.728;2023-09-19T07:53:35;99348.84;;;23.74;57.63
51249;BME280;39642;47.556;18.728;2023-09-19T07:56:03;99365.62;;;23.74;57.63
51249;BME280;39642;47.556;18.728;2023-09-19T07:58:30;99370.72;;;23.77;57.61
51249;BME280;39642;47.556;18.728;2023-09-19T08:01:05;99370.25;;;23.83;57.61
51249;BME280;39642;47.556;18.728;2023-09-19T08:03:35;99370.59;;;23.90;57.46
51249;BME280;39642;47.556;18.728;2023-09-19T08:06:06;99374.00;;;23.92;57.34
51249;BME280;39642;47.556;18.728;2023-09-19T08:08:34;99382.69;;;23.94;57.08
51249;BME280;39642;47.556;18.728;2023-09-19T08:11:04;99382.56;;;23.96;56.93
51249;BME280;39642;47.556;18.728;2023-09-19T08:13:39;99385.84;;;23.99;57.03
51249;BME280;39642;47.556;18.728;2023-09-19T08:16:17;99392.84;;;24.00;57.09
51249;BME280;39642;47.556;18.728;2023-09-19T08:18:48;99397.91;;;24.03;57.12
51249;BME280;39642;47.556;18.728;2023-09-19T08:21:18;99398.19;;;24.00;57.84
51249;BME280;39642;47.556;18.728;2023-09-19T08:23:45;99388.84;;;23.95;57.64
51249;BME280;39642;47.556;18.728;2023-09-19T08:26:14;99392.50;;;23.94;57.25
51249;BME280;39642;47.556;18.728;2023-09-19T08:28:40;99394.06;;;23.96;57.55
51249;BME280;39642;47.556;18.728;2023-09-19T08:31:07;99406.50;;;23.96;57.69
51249;BME280;39642;47.556;18.728;2023-09-19T08:33:35;99402.03;;;23.96;57.71
51249;BME280;39642;47.556;18.728;2023-09-19T08:36:06;99402.88;;;23.97;57.75
51249;BME280;39642;47.556;18.728;2023-09-19T08:38:34;99421.75;;;23.94;57.91
51249;BME280;39642;47.556;18.728;2023-09-19T08:41:05;99418.09;;;23.95;57.58
51249;BME280;39642;47.556;18.728;2023-09-19T08:43:32;99418.00;;;23.96;58.96
51249;BME280;39642;47.556;18.728;2023-09-19T08:46:11;99427.44;;;23.89;59.03
51249;BME280;39642;47.556;18.728;2023-09-19T08:48:48;99403.97;;;23.83;59.30
51249;BME280;39642;47.556;18.728;2023-09-19T08:51:45;99406.63;;;23.83;59.28
51249;BME280;39642;47.556;18.728;2023-09-19T08:54:22;99413.87;;;23.81;58.90
51249;BME280;39642;47.556;18.728;2023-09-19T08:56:54;99410.03;;;23.85;59.58
51249;BME280;39642;47.556;18.728;2023-09-19T08:59:21;99407.94;;;23.88;59.23
51249;BME280;39642;47.556;18.728;2023-09-19T09:01:53;99403.72;;;23.86;59.10
51249;BME280;39642;47.556;18.728;2023-09-19T09:04:20;99401.53;;;23.80;59.07
51249;BME280;39642;47.556;18.728;2023-09-19T09:06:49;99402.84;;;23.74;59.32
51249;BME280;39642;47.556;18.728;2023-09-19T09:09:20;99416.06;;;23.76;59.29
51249;BME280;39642;47.556;18.728;2023-09-19T09:11:48;99418.78;;;23.74;59.31
51249;BME280;39642;47.556;18.728;2023-09-19T09:14:20;99416.13;;;23.74;59.23
51249;BME280;39642;47.556;18.728;2023-09-19T09:16:47;99409.25;;;23.72;59.40
51249;BME280;39642;47.556;18.728;2023-09-19T09:19:14;99407.53;;;23.70;59.58
51249;BME280;39642;47.556;18.728;2023-09-19T09:21:46;99409.47;;;23.68;59.57
51249;BME280;39642;47.556;18.728;2023-09-19T09:24:29;99410.94;;;23.73;59.47
51249;BME280;39642;47.556;18.728;2023-09-19T09:26:59;99416.13;;;23.74;59.23
51249;BME280;39642;47.556;18.728;2023-09-19T09:29:46;99414.97;;;23.78;58.95
51249;BME280;39642;47.556;18.728;2023-09-19T09:32:28;99422.94;;;23.78;58.97
51249;BME280;39642;47.556;18.728;2023-09-19T09:34:58;99414.81;;;23.80;58.97
51249;BME280;39642;47.556;18.728;2023-09-19T09:37:25;99416.53;;;23.81;59.04
51249;BME280;39642;47.556;18.728;2023-09-19T09:39:54;99406.84;;;23.80;59.21
51249;BME280;39642;47.556;18.728;2023-09-19T09:42:34;99392.00;;;23.77;59.49
51249;BME280;39642;47.556;18.728;2023-09-19T09:45:16;99390.50;;;23.73;59.95
51249;BME280;39642;47.556;18.728;2023-09-19T09:47:45;99402.12;;;23.72;60.03
51249;BME280;39642;47.556;18.728;2023-09-19T09:53:24;99413.47;;;23.74;59.57
51249;BME280;39642;47.556;18.728;2023-09-19T09:58:26;99407.72;;;23.80;60.67
51249;BME280;39642;47.556;18.728;2023-09-19T10:00:58;99396.72;;;23.85;60.50
51249;BME280;39642;47.556;18.728;2023-09-19T10:03:40;99400.84;;;23.89;60.11
51249;BME280;39642;47.556;18.728;2023-09-19T10:06:12;99400.69;;;23.90;59.93
51249;BME280;39642;47.556;18.728;2023-09-19T10:11:31;99418.09;;;23.83;60.01
51249;BME280;39642;47.556;18.728;2023-09-19T10:14:00;99415.09;;;23.77;60.50
51249;BME280;39642;47.556;18.728;2023-09-19T10:16:34;99412.03;;;23.70;60.64
51249;BME280;39642;47.556;18.728;2023-09-19T10:19:02;99429.41;;;23.63;60.55
51249;BME280;39642;47.556;18.728;2023-09-19T10:21:30;99435.94;;;23.59;61.17
51249;BME280;39642;47.556;18.728;2023-09-19T10:23:58;99436.31;;;23.65;60.45
51249;BME280;39642;47.556;18.728;2023-09-19T10:26:27;99443.53;;;23.63;60.96
51249;BME280;39642;47.556;18.728;2023-09-19T10:28:57;99433.53;;;23.67;60.47
51249;BME280;39642;47.556;18.728;2023-09-19T10:31:27;99434.00;;;23.72;60.42
51249;BME280;39642;47.556;18.728;2023-09-19T10:33:55;99432.00;;;23.76;60.26
51249;BME280;39642;47.556;18.728;2023-09-19T10:36:24;99436.09;;;23.80;60.21
51249;BME280;39642;47.556;18.728;2023-09-19T10:38:55;99442.97;;;23.71;60.85
51249;BME280;39642;47.556;18.728;2023-09-19T10:41:24;99439.44;;;23.70;61.26
51249;BME280;39642;47.556;18.728;2023-09-19T10:43:50;99449.84;;;23.74;61.09
51249;BME280;39642;47.556;18.728;2023-09-19T10:46:20;99452.31;;;23.77;61.16
51249;BME280;39642;47.556;18.728;2023-09-19T10:48:46;99454.97;;;23.77;61.20
51249;BME280;39642;47.556;18.728;2023-09-19T10:51:22;99461.25;;;23.76;61.41
51249;BME280;39642;47.556;18.728;2023-09-19T10:54:11;99461.34;;;23.74;61.24
51249;BME280;39642;47.556;18.728;2023-09-19T10:56:46;99465.34;;;23.80;61.06
51249;BME280;39642;47.556;18.728;2023-09-19T10:59:16;99472.84;;;23.86;60.73
51249;BME280;39642;47.556;18.728;2023-09-19T11:04:32;99473.59;;;23.88;60.85
51249;BME280;39642;47.556;18.728;2023-09-19T11:09:53;99473.47;;;24.01;59.83
51249;BME280;39642;47.556;18.728;2023-09-19T11:14:54;99470.81;;;24.01;59.82
51249;BME280;39642;47.556;18.728;2023-09-19T11:30:49;99457.88;;;23.96;59.17
51249;BME280;39642;47.556;18.728;2023-09-19T11:33:29;99461.38;;;23.97;59.01
51249;BME280;39642;47.556;18.728;2023-09-19T11:36:06;99455.22;;;23.96;58.99
51249;BME280;39642;47.556;18.728;2023-09-19T11:43:53;99454.13;;;23.99;59.36
51249;BME280;39642;47.556;18.728;2023-09-19T11:49:31;99460.91;;;24.03;57.90
51249;BME280;39642;47.556;18.728;2023-09-19T11:51:58;99458.13;;;24.04;56.79
51249;BME280;39642;47.556;18.728;2023-09-19T11:54:31;99464.88;;;24.08;57.21
51249;BME280;39642;47.556;18.728;2023-09-19T11:56:59;99458.63;;;24.09;57.02
51249;BME280;39642;47.556;18.728;2023-09-19T11:59:27;99456.19;;;24.18;56.84
51249;BME280;39642;47.556;18.728;2023-09-19T12:02:01;99454.13;;;24.33;55.80
51249;BME280;39642;47.556;18.728;2023-09-19T12:07:07;99460.41;;;24.31;55.32
51249;BME280;39642;47.556;18.728;2023-09-19T12:09:39;99456.16;;;24.29;56.85
51249;BME280;39642;47.556;18.728;2023-09-19T12:12:07;99454.72;;;24.25;57.05
51249;BME280;39642;47.556;18.728;2023-09-19T12:14:34;99451.69;;;24.18;57.12
51249;BME280;39642;47.556;18.728;2023-09-19T12:17:01;99461.63;;;24.16;57.04
51249;BME280;39642;47.556;18.728;2023-09-19T12:19:29;99467.91;;;24.15;56.55
51249;BME280;39642;47.556;18.728;2023-09-19T12:21:56;99465.13;;;24.17;56.11
51249;BME280;39642;47.556;18.728;2023-09-19T12:24:27;99472.12;;;24.18;56.54
51249;BME280;39642;47.556;18.728;2023-09-19T12:27:03;99464.16;;;24.18;56.64
51249;BME280;39642;47.556;18.728;2023-09-19T12:29:44;99469.63;;;24.16;56.32
51249;BME280;39642;47.556;18.728;2023-09-19T12:32:10;99473.13;;;24.17;56.65
51249;BME280;39642;47.556;18.728;2023-09-19T12:34:36;99464.41;;;24.15;56.86
51249;BME280;39642;47.556;18.728;2023-09-19T12:37:10;99466.09;;;24.16;56.69
51249;BME280;39642;47.556;18.728;2023-09-19T12:39:51;99462.69;;;24.14;56.38
51249;BME280;39642;47.556;18.728;2023-09-19T12:42:22;99458.84;;;24.06;57.37
51249;BME280;39642;47.556;18.728;2023-09-19T12:44:51;99460.56;;;24.07;57.22
51249;BME280;39642;47.556;18.728;2023-09-19T12:47:28;99459.81;;;24.05;56.95
51249;BME280;39642;47.556;18.728;2023-09-19T12:50:15;99460.28;;;23.99;56.90
51249;BME280;39642;47.556;18.728;2023-09-19T12:52:47;99454.50;;;23.94;56.76
51249;BME280;39642;47.556;18.728;2023-09-19T12:55:24;99449.75;;;23.86;58.05
51249;BME280;39642;47.556;18.728;2023-09-19T13:00:41;99454.44;;;23.72;56.64
51249;BME280;39642;47.556;18.728;2023-09-19T13:05:55;99453.28;;;23.76;57.04
51249;BME280;39642;47.556;18.728;2023-09-19T13:13:50;99459.19;;;23.79;56.53
51249;BME280;39642;47.556;18.728;2023-09-19T13:16:21;99458.25;;;23.80;57.06
51249;BME280;39642;47.556;18.728;2023-09-19T13:18:50;99458.25;;;23.92;57.43
51249;BME280;39642;47.556;18.728;2023-09-19T13:21:27;99459.09;;;23.92;56.43
51249;BME280;39642;47.556;18.728;2023-09-19T13:24:23;99459.94;;;23.93;56.88
51249;BME280;39642;47.556;18.728;2023-09-19T13:26:54;99454.59;;;23.93;56.17
51249;BME280;39642;47.556;18.728;2023-09-19T13:29:19;99462.00;;;23.89;56.51
51249;BME280;39642;47.556;18.728;2023-09-19T13:31:52;99454.84;;;23.89;56.35
51249;BME280;39642;47.556;18.728;2023-09-19T13:34:19;99459.09;;;23.92;56.63
51249;BME280;39642;47.556;18.728;2023-09-19T13:36:46;99464.16;;;23.95;56.48
51249;BME280;39642;47.556;18.728;2023-09-19T13:39:18;99457.16;;;23.94;56.41
51249;BME280;39642;47.556;18.728;2023-09-19T13:41:46;99471.41;;;23.93;56.56
51249;BME280;39642;47.556;18.728;2023-09-19T13:44:13;99464.16;;;23.95;56.64
51249;BME280;39642;47.556;18.728;2023-09-19T13:46:39;99467.31;;;24.00;56.27
51249;BME280;39642;47.556;18.728;2023-09-19T13:49:06;99475.78;;;24.05;56.47
51249;BME280;39642;47.556;18.728;2023-09-19T13:51:32;99475.53;;;24.08;55.94
51249;BME280;39642;47.556;18.728;2023-09-19T13:53:58;99482.31;;;24.13;56.16
51249;BME280;39642;47.556;18.728;2023-09-19T13:56:25;99485.69;;;24.15;55.62
51249;BME280;39642;47.556;18.728;2023-09-19T13:58:54;99488.09;;;24.18;54.85
51249;BME280;39642;47.556;18.728;2023-09-19T14:01:20;99481.69;;;24.20;54.60
51249;BME280;39642;47.556;18.728;2023-09-19T14:03:46;99484.25;;;24.22;54.48
51249;BME280;39642;47.556;18.728;2023-09-19T14:06:13;99488.59;;;24.23;55.10
51249;BME280;39642;47.556;18.728;2023-09-19T14:08:39;99486.78;;;24.23;55.27
51249;BME280;39642;47.556;18.728;2023-09-19T14:11:08;99492.22;;;24.22;54.33
51249;BME280;39642;47.556;18.728;2023-09-19T14:13:34;99496.81;;;24.20;53.98
51249;BME280;39642;47.556;18.728;2023-09-19T14:16:04;99495.12;;;24.19;54.79
51249;BME280;39642;47.556;18.728;2023-09-19T14:18:35;99491.59;;;24.18;54.30
51249;BME280;39642;47.556;18.728;2023-09-19T14:21:04;99487.38;;;24.16;54.29
51249;BME280;39642;47.556;18.728;2023-09-19T14:23:37;99490.41;;;24.11;54.84
51249;BME280;39642;47.556;18.728;2023-09-19T14:26:03;99480.75;;;24.10;54.94
51249;BME280;39642;47.556;18.728;2023-09-19T14:28:31;99487.16;;;24.07;55.55
51249;BME280;39642;47.556;18.728;2023-09-19T14:31:09;99486.16;;;24.08;56.49
51249;BME280;39642;47.556;18.728;2023-09-19T14:33:35;99483.63;;;24.07;55.37